Time;durP1;ratioP1;P1;durP2;ratioP2;P2;SDS_P1;SDS_P2;PMS_P1;PMS_P2;Temp;Humidity;BMP_temperature;BMP_pressure;BME280_temperature;BME280_humidity;BME280_pressure;Samples;Min_cycle;Max_cycle;Signal;HPM_P1;HPM_P2
2023/05/10 00:00:02;;;;;;;1.73;1.50;;;;;;;14.57;100.00;98824.63;335119;29;5315;-72
2023/05/10 00:00:14;;;;;;;1.70;1.45;;;;;;;14.56;100.00;98815.09;332683;29;18008;-72
2023/05/10 00:00:27;;;;;;;2.78;2.53;;;;;;;14.54;100.00;98816.91;336413;28;4669;-72
2023/05/10 00:00:40;;;;;;;3.20;2.90;;;;;;;14.54;100.00;98824.75;333420;29;17932;-72
2023/05/10 00:00:52;;;;;;;2.70;2.50;;;;;;;14.54;100.00;98827.38;333269;29;10595;-73
2023/05/10 00:01:04;;;;;;;1.67;1.58;;;;;;;14.56;100.00;98821.16;336484;29;5064;-73
2023/05/10 00:01:16;;;;;;;1.33;1.23;;;;;;;14.60;100.00;98827.03;336302;29;5413;-71
2023/05/10 00:01:28;;;;;;;1.40;1.30;;;;;;;14.61;100.00;98823.50;332434;29;18132;-71
2023/05/10 00:01:40;;;;;;;1.98;1.85;;;;;;;14.63;100.00;98826.84;335252;29;5184;-72
2023/05/10 00:01:52;;;;;;;3.05;2.85;;;;;;;14.62;100.00;98829.56;334183;28;9278;-71
2023/05/10 00:02:04;;;;;;;2.92;2.72;;;;;;;14.55;100.00;98824.69;335067;29;4577;-71
2023/05/10 00:02:16;;;;;;;2.22;2.03;;;;;;;14.57;100.00;98822.00;335362;29;4715;-71
2023/05/10 00:02:28;;;;;;;2.25;1.70;;;;;;;14.54;100.00;98822.97;333380;29;18271;-73
2023/05/10 00:02:40;;;;;;;2.67;1.75;;;;;;;14.51;100.00;98827.59;334429;29;4551;-73
2023/05/10 00:02:52;;;;;;;2.10;1.40;;;;;;;14.52;100.00;98831.88;333106;29;17872;-73
2023/05/10 00:03:04;;;;;;;2.15;1.30;;;;;;;14.53;100.00;98821.31;336332;29;4517;-73
2023/05/10 00:03:16;;;;;;;1.90;1.58;;;;;;;14.55;100.00;98826.47;335341;29;4501;-73
2023/05/10 00:03:28;;;;;;;1.77;1.65;;;;;;;14.55;100.00;98818.63;332881;29;18326;-72
2023/05/10 00:03:41;;;;;;;1.60;1.50;;;;;;;14.57;100.00;98822.00;335703;29;4518;-71
2023/05/10 00:03:53;;;;;;;1.58;1.48;;;;;;;14.57;100.00;98827.25;333121;28;19054;-71
2023/05/10 00:04:05;;;;;;;1.85;1.75;;;;;;;14.53;100.00;98826.56;336806;28;5341;-71
2023/05/10 00:04:17;;;;;;;2.17;1.98;;;;;;;14.54;100.00;98830.00;333512;28;9628;-70
2023/05/10 00:04:29;;;;;;;2.08;1.88;;;;;;;14.53;100.00;98826.56;336274;29;4679;-72
2023/05/10 00:04:41;;;;;;;2.08;1.88;;;;;;;14.46;100.00;98829.63;336666;28;5254;-72
2023/05/10 00:04:53;;;;;;;2.05;1.85;;;;;;;14.47;100.00;98826.09;333855;28;18983;-73
2023/05/10 00:05:05;;;;;;;2.17;1.98;;;;;;;14.44;100.00;98826.28;337301;28;4555;-72
2023/05/10 00:05:17;;;;;;;2.80;1.88;;;;;;;14.43;100.00;98828.06;334583;28;5287;-73
2023/05/10 00:05:29;;;;;;;3.05;1.48;;;;;;;14.46;100.00;98829.63;337321;28;4866;-72
2023/05/10 00:05:41;;;;;;;3.08;1.30;;;;;;;14.39;100.00;98830.00;337268;28;5480;-73
2023/05/10 00:05:53;;;;;;;1.80;1.33;;;;;;;14.35;100.00;98828.53;333713;28;18215;-74
2023/05/10 00:06:05;;;;;;;1.67;1.58;;;;;;;14.37;100.00;98831.88;337712;28;5243;-73
2023/05/10 00:06:17;;;;;;;2.58;1.75;;;;;;;14.30;100.00;98827.94;334192;28;17346;-73
2023/05/10 00:06:30;;;;;;;2.67;1.80;;;;;;;14.32;100.00;98826.06;337351;28;5034;-73
2023/05/10 00:06:42;;;;;;;2.40;1.88;;;;;;;14.33;100.00;98824.31;335616;28;11031;-73
2023/05/10 00:06:54;;;;;;;2.50;1.80;;;;;;;14.34;100.00;98832.06;335550;28;17653;-70
2023/05/10 00:07:06;;;;;;;2.60;1.75;;;;;;;14.38;100.00;98825.69;337027;28;5021;-71
2023/05/10 00:07:18;;;;;;;2.00;1.70;;;;;;;14.35;100.00;98823.28;333636;28;18680;-72
2023/05/10 00:07:33;;;;;;;1.67;1.58;;;;;;;14.35;100.00;98828.53;332647;29;18177;-71
2023/05/10 00:07:45;;;;;;;1.73;1.58;;;;;;;14.37;100.00;98826.66;335482;29;4546;-72
2023/05/10 00:07:57;;;;;;;2.15;1.55;;;;;;;14.38;100.00;98824.88;333324;29;4746;-72
2023/05/10 00:08:09;;;;;;;2.92;1.38;;;;;;;14.33;100.00;98824.31;335874;29;5488;-73
2023/05/10 00:08:21;;;;;;;2.50;1.63;;;;;;;14.37;100.00;98831.88;336002;29;5258;-73
2023/05/10 00:08:33;;;;;;;2.55;1.90;;;;;;;14.35;100.00;98828.53;332714;29;18179;-73
2023/05/10 00:08:45;;;;;;;1.93;1.83;;;;;;;14.36;100.00;98826.75;335814;29;5491;-73
2023/05/10 00:08:57;;;;;;;1.67;1.50;;;;;;;14.41;100.00;98831.69;333297;29;10351;-73
2023/05/10 00:09:09;;;;;;;2.17;1.98;;;;;;;14.40;100.00;98828.22;336191;29;5091;-73
2023/05/10 00:09:21;;;;;;;2.38;2.17;;;;;;;14.36;100.00;98835.41;335460;29;4780;-73
2023/05/10 00:09:33;;;;;;;2.17;1.98;;;;;;;14.37;100.00;98824.03;332087;28;18019;-72
2023/05/10 00:09:45;;;;;;;2.00;1.80;;;;;;;14.36;100.00;98829.34;331690;29;5432;-73
2023/05/10 00:09:57;;;;;;;2.03;1.70;;;;;;;14.35;100.00;98832.91;335302;29;10716;-72
2023/05/10 00:10:09;;;;;;;1.73;1.48;;;;;;;14.34;100.00;98826.00;332879;29;17410;-72
2023/05/10 00:10:22;;;;;;;2.20;1.30;;;;;;;14.27;100.00;98829.94;334627;29;5213;-72
2023/05/10 00:10:34;;;;;;;2.20;1.38;;;;;;;14.26;100.00;98826.47;332557;29;18183;-72
2023/05/10 00:10:46;;;;;;;1.50;1.40;;;;;;;14.22;100.00;98831.97;334562;29;4748;-73
2023/05/10 00:10:58;;;;;;;1.70;1.50;;;;;;;14.28;100.00;98831.59;332189;29;18126;-71
2023/05/10 00:11:10;;;;;;;1.67;1.50;;;;;;;14.28;100.00;98832.44;335106;29;4761;-71
2023/05/10 00:11:22;;;;;;;1.63;1.52;;;;;;;14.31;100.00;98834.88;332047;29;9928;-70
2023/05/10 00:11:34;;;;;;;1.92;1.83;;;;;;;14.29;100.00;98828.06;334935;29;4568;-71
2023/05/10 00:11:46;;;;;;;2.00;1.90;;;;;;;14.32;100.00;98833.91;335243;29;5526;-70
2023/05/10 00:11:58;;;;;;;2.08;1.88;;;;;;;14.31;100.00;98827.03;327701;28;18578;-70
2023/05/10 00:12:10;;;;;;;2.00;1.80;;;;;;;14.28;100.00;98831.59;336666;28;4551;-70
2023/05/10 00:12:22;;;;;;;1.90;1.75;;;;;;;14.26;100.00;98833.47;334799;28;18315;-72
2023/05/10 00:12:34;;;;;;;1.45;1.35;;;;;;;14.23;100.00;98836.28;337427;28;4638;-71
2023/05/10 00:12:46;;;;;;;1.48;1.38;;;;;;;14.20;100.00;98832.06;336056;29;5542;-72
2023/05/10 00:12:58;;;;;;;1.55;1.30;;;;;;;14.18;100.00;98831.31;333323;29;18144;-72
2023/05/10 00:13:12;;;;;;;1.95;1.58;;;;;;;14.12;100.00;98844.75;333639;29;9622;-70
2023/05/10 00:13:24;;;;;;;2.10;1.80;;;;;;;14.16;100.00;98836.63;335037;29;17620;-70
2023/05/10 00:13:36;;;;;;;3.25;1.80;;;;;;;14.21;100.00;98836.38;336049;29;4538;-73
2023/05/10 00:13:48;;;;;;;3.00;1.60;;;;;;;14.17;100.00;98835.72;333177;29;18332;-73
2023/05/10 00:14:00;;;;;;;1.60;1.50;;;;;;;14.18;100.00;98833.94;336101;29;4787;-72
2023/05/10 00:14:12;;;;;;;1.60;1.50;;;;;;;14.23;100.00;98834.50;336164;29;9699;-71
2023/05/10 00:14:24;;;;;;;1.70;1.60;;;;;;;14.27;100.00;98829.94;333209;28;18116;-70
2023/05/10 00:14:36;;;;;;;2.00;1.67;;;;;;;14.27;100.00;98836.00;335719;29;5183;-70
2023/05/10 00:14:48;;;;;;;1.85;1.63;;;;;;;14.22;100.00;98838.03;333867;28;17984;-72
2023/05/10 00:15:00;;;;;;;1.88;1.63;;;;;;;14.22;100.00;98832.81;336132;29;4469;-72
2023/05/10 00:15:12;;;;;;;2.22;1.58;;;;;;;14.21;100.00;98840.75;333490;29;9265;-73
2023/05/10 00:15:24;;;;;;;2.25;1.50;;;;;;;14.23;100.00;98829.28;335116;29;18453;-73
2023/05/10 00:15:36;;;;;;;2.70;1.60;;;;;;;14.24;100.00;98835.34;336073;28;4722;-73
2023/05/10 00:15:47;;;;;;;1.85;1.63;;;;;;;14.22;100.00;98832.81;332447;28;17014;-73
2023/05/10 00:15:59;;;;;;;1.85;1.75;;;;;;;14.22;100.00;98838.03;336074;29;4827;-73
2023/05/10 00:16:12;;;;;;;1.80;1.70;;;;;;;14.23;100.00;98838.91;336017;29;5081;-73
2023/05/10 00:16:24;;;;;;;2.67;1.40;;;;;;;14.22;100.00;98842.44;333058;29;17926;-72
2023/05/10 00:16:37;;;;;;;2.70;1.30;;;;;;;14.20;100.00;98829.44;333729;28;4718;-72
2023/05/10 00:16:49;;;;;;;1.48;1.25;;;;;;;14.21;100.00;98835.53;335990;29;5278;-73
2023/05/10 00:17:01;;;;;;;1.50;1.30;;;;;;;14.22;100.00;98835.41;336302;28;5342;-72
2023/05/10 00:17:15;;;;;;;2.90;1.50;;;;;;;14.23;100.00;98831.06;333376;28;17999;-72
2023/05/10 00:17:27;;;;;;;2.60;1.40;;;;;;;14.25;100.00;98837.88;336791;28;8821;-71
2023/05/10 00:17:41;;;;;;;2.13;1.20;;;;;;;14.24;100.00;98841.41;334808;28;17187;-72
2023/05/10 00:17:53;;;;;;;2.45;1.48;;;;;;;14.21;100.00;98832.94;333366;29;18335;-72
2023/05/10 00:18:05;;;;;;;1.88;1.77;;;;;;;14.17;100.00;98830.47;335846;29;4528;-73
2023/05/10 00:18:17;;;;;;;2.45;2.25;;;;;;;14.17;100.00;98840.94;332774;29;16636;-73
2023/05/10 00:18:30;;;;;;;2.50;2.30;;;;;;;14.15;100.00;98834.13;335237;29;4494;-71
2023/05/10 00:18:42;;;;;;;2.60;2.40;;;;;;;14.17;100.00;98840.09;331627;29;8129;-71
2023/05/10 00:18:54;;;;;;;2.13;1.92;;;;;;;14.17;100.00;98840.94;334805;29;4679;-71
2023/05/10 00:19:06;;;;;;;2.15;2.00;;;;;;;14.19;100.00;98827.78;335132;29;4515;-70
2023/05/10 00:19:18;;;;;;;1.90;1.80;;;;;;;14.22;100.00;98832.81;331828;29;10275;-70
2023/05/10 00:19:30;;;;;;;1.52;1.42;;;;;;;14.23;100.00;98834.50;334468;29;4527;-71
2023/05/10 00:19:42;;;;;;;1.70;1.60;;;;;;;14.25;100.00;98835.25;330660;29;9054;-73
2023/05/10 00:19:54;;;;;;;1.90;1.80;;;;;;;14.26;100.00;98834.28;333182;29;4544;-72
2023/05/10 00:20:07;;;;;;;2.50;1.70;;;;;;;14.29;100.00;98828.91;334764;29;4672;-72
2023/05/10 00:20:18;;;;;;;2.40;1.55;;;;;;;14.24;100.00;98830.09;326839;29;18237;-71
2023/05/10 00:20:31;;;;;;;2.13;1.55;;;;;;;14.23;100.00;98834.50;334874;29;5286;-71
2023/05/10 00:20:43;;;;;;;1.60;1.50;;;;;;;14.26;100.00;98828.25;333212;29;18448;-71
2023/05/10 00:20:55;;;;;;;1.98;1.77;;;;;;;14.29;100.00;98836.75;336151;29;5177;-71
2023/05/10 00:21:06;;;;;;;2.70;2.20;;;;;;;14.31;100.00;98827.03;336008;29;4694;-70
2023/05/10 00:21:19;;;;;;;2.83;2.10;;;;;;;14.33;100.00;98835.63;333276;29;18000;-73
2023/05/10 00:21:31;;;;;;;1.77;1.40;;;;;;;14.30;100.00;98830.56;336127;29;4559;-73
2023/05/10 00:21:45;;;;;;;1.60;1.50;;;;;;;14.25;100.00;98837.03;333568;28;19138;-72
2023/05/10 00:21:57;;;;;;;1.48;1.38;;;;;;;14.22;100.00;98835.41;336130;28;5089;-71
2023/05/10 00:22:08;;;;;;;1.67;1.58;;;;;;;14.24;100.00;98833.56;334656;28;18383;-72
2023/05/10 00:22:24;;;;;;;2.30;2.10;;;;;;;14.18;100.00;98832.19;336787;28;4796;-72
2023/05/10 00:22:36;;;;;;;2.80;2.17;;;;;;;14.13;100.00;98839.44;331629;29;17962;-71
2023/05/10 00:22:48;;;;;;;2.58;1.60;;;;;;;14.09;100.00;98832.72;333396;28;18503;-72
2023/05/10 00:23:00;;;;;;;2.40;1.58;;;;;;;14.13;100.00;98834.22;335993;28;5541;-70
2023/05/10 00:23:12;;;;;;;1.60;1.50;;;;;;;14.15;100.00;98836.75;333571;28;8303;-70
2023/05/10 00:23:24;;;;;;;1.75;1.42;;;;;;;14.10;100.00;98833.56;336124;28;5143;-70
2023/05/10 00:23:37;;;;;;;2.17;1.73;;;;;;;14.11;100.00;98832.63;331114;28;5053;-71
2023/05/10 00:23:49;;;;;;;3.60;3.22;;;;;;;14.12;100.00;98836.91;333232;28;18148;-73
2023/05/10 00:24:01;;;;;;;4.00;3.70;;;;;;;14.13;100.00;98838.59;336095;28;4703;-71
2023/05/10 00:24:13;;;;;;;3.22;2.95;;;;;;;14.12;100.00;98836.91;332675;28;18504;-70
2023/05/10 00:24:25;;;;;;;1.63;1.52;;;;;;;14.15;100.00;98834.13;335669;28;5363;-69
2023/05/10 00:24:37;;;;;;;1.65;1.55;;;;;;;14.17;100.00;98835.72;336246;28;5585;-71
2023/05/10 00:24:49;;;;;;;1.85;1.75;;;;;;;14.21;100.00;98843.38;334689;28;18187;-72
2023/05/10 00:25:01;;;;;;;1.90;1.80;;;;;;;14.18;100.00;98834.78;337234;28;4957;-72
2023/05/10 00:25:13;;;;;;;1.60;1.50;;;;;;;14.20;100.00;98839.91;330358;28;18134;-72
2023/05/10 00:25:26;;;;;;;1.60;1.48;;;;;;;14.19;100.00;98851.31;337183;28;5172;-70
2023/05/10 00:25:38;;;;;;;1.48;1.38;;;;;;;14.22;100.00;98834.59;334123;28;18390;-70
2023/05/10 00:25:50;;;;;;;1.40;1.30;;;;;;;14.28;100.00;98832.44;337189;28;5492;-70
2023/05/10 00:26:02;;;;;;;1.40;1.30;;;;;;;14.27;100.00;98835.16;337017;28;4695;-70
2023/05/10 00:26:14;;;;;;;1.73;1.63;;;;;;;14.25;100.00;98832.63;334253;28;18879;-72
2023/05/10 00:26:26;;;;;;;2.03;1.92;;;;;;;14.22;100.00;98832.81;337677;28;5114;-73
2023/05/10 00:26:38;;;;;;;2.05;1.95;;;;;;;14.21;100.00;98831.13;334297;28;18342;-72
2023/05/10 00:26:50;;;;;;;2.10;2.00;;;;;;;14.20;100.00;98839.91;337246;28;4593;-72
2023/05/10 00:27:03;;;;;;;2.00;1.90;;;;;;;14.17;100.00;98832.25;334595;28;8874;-72
2023/05/10 00:27:15;;;;;;;1.98;1.88;;;;;;;14.18;100.00;98832.19;337234;28;5344;-70
2023/05/10 00:27:27;;;;;;;1.90;1.80;;;;;;;14.17;100.00;98840.09;334259;28;5273;-70
2023/05/10 00:27:39;;;;;;;2.03;1.83;;;;;;;14.16;100.00;98830.56;337342;28;5019;-70
2023/05/10 00:27:55;;;;;;;2.03;1.70;;;;;;;14.13;100.00;98843.84;333816;28;18474;-73
2023/05/10 00:28:07;;;;;;;1.98;1.40;;;;;;;14.14;100.00;98840.28;337423;28;5855;-72
2023/05/10 00:28:19;;;;;;;2.47;1.40;;;;;;;14.16;100.00;98836.63;334873;28;18757;-71
2023/05/10 00:28:30;;;;;;;2.47;1.50;;;;;;;14.14;100.00;98835.03;337387;28;5040;-71
2023/05/10 00:28:42;;;;;;;1.60;1.50;;;;;;;14.17;100.00;98834.88;332590;28;16011;-72
2023/05/10 00:28:58;;;;;;;1.50;1.40;;;;;;;14.16;100.00;98833.19;335356;29;4665;-72
2023/05/10 00:29:10;;;;;;;1.90;1.40;;;;;;;14.11;100.00;98835.25;333320;28;18383;-72
2023/05/10 00:29:22;;;;;;;1.70;1.40;;;;;;;14.15;100.00;98836.75;336098;28;6130;-70
2023/05/10 00:29:34;;;;;;;2.30;1.50;;;;;;;14.13;100.00;98834.22;333023;28;18297;-70
2023/05/10 00:29:46;;;;;;;1.88;1.50;;;;;;;14.15;100.00;98836.75;335889;28;5280;-71
2023/05/10 00:30:02;;;;;;;1.60;1.50;;;;;;;14.15;100.00;98831.50;333743;28;16212;-72
2023/05/10 00:30:13;;;;;;;1.77;1.67;;;;;;;14.17;100.00;98824.41;333200;28;18022;-71
2023/05/10 00:30:26;;;;;;;1.83;1.73;;;;;;;14.14;100.00;98837.66;335890;28;4649;-70
2023/05/10 00:30:41;;;;;;;1.77;1.67;;;;;;;14.16;100.00;98833.19;333182;28;18296;-69
2023/05/10 00:30:53;;;;;;;2.05;1.92;;;;;;;14.13;100.00;98828.16;333632;28;15799;-71
2023/05/10 00:31:06;;;;;;;2.38;2.20;;;;;;;14.04;100.00;98836.53;336578;28;4723;-70
2023/05/10 00:31:18;;;;;;;2.15;1.95;;;;;;;14.07;100.00;98837.19;334055;28;18230;-70
2023/05/10 00:31:30;;;;;;;2.00;1.63;;;;;;;14.02;100.00;98830.56;337132;28;5299;-71
2023/05/10 00:31:42;;;;;;;2.05;1.65;;;;;;;14.02;100.00;98841.84;336614;28;8062;-71
2023/05/10 00:31:54;;;;;;;2.75;2.53;;;;;;;14.04;100.00;98833.91;334692;28;17419;-70
2023/05/10 00:32:06;;;;;;;2.97;2.70;;;;;;;14.01;100.00;98829.72;337460;28;4907;-73
2023/05/10 00:32:18;;;;;;;2.47;2.28;;;;;;;14.02;100.00;98830.56;334351;28;18353;-73
2023/05/10 00:32:30;;;;;;;1.70;1.60;;;;;;;13.96;100.00;98830.00;337222;28;4549;-73
2023/05/10 00:32:43;;;;;;;1.85;1.75;;;;;;;13.97;100.00;98834.28;334361;28;10769;-73
2023/05/10 00:32:55;;;;;;;2.40;1.80;;;;;;;13.96;100.00;98827.41;336929;28;5271;-73
2023/05/10 00:33:07;;;;;;;2.65;1.60;;;;;;;13.91;100.00;98834.66;337141;28;4543;-73
2023/05/10 00:33:19;;;;;;;2.22;1.60;;;;;;;13.85;100.00;98827.19;334670;28;18220;-73
2023/05/10 00:33:31;;;;;;;2.00;1.80;;;;;;;13.86;100.00;98831.47;335961;28;5100;-70
2023/05/10 00:33:43;;;;;;;3.13;1.52;;;;;;;13.88;100.00;98829.59;332318;28;17939;-70
2023/05/10 00:33:55;;;;;;;4.20;1.48;;;;;;;13.89;100.00;98830.47;335555;28;4704;-72
2023/05/10 00:34:07;;;;;;;4.53;1.50;;;;;;;13.86;100.00;98831.47;336043;28;8115;-72
2023/05/10 00:34:19;;;;;;;4.05;1.58;;;;;;;13.88;100.00;98829.59;333268;29;18312;-73
2023/05/10 00:34:31;;;;;;;3.97;1.60;;;;;;;13.84;100.00;98833.31;334555;29;6324;-71
2023/05/10 00:34:43;;;;;;;3.92;1.90;;;;;;;13.89;100.00;98836.50;331812;29;18153;-72
2023/05/10 00:34:55;;;;;;;2.20;2.00;;;;;;;13.89;100.00;98831.28;334645;29;5224;-72
2023/05/10 00:35:08;;;;;;;2.10;1.90;;;;;;;13.93;100.00;98832.78;333523;29;5049;-72
2023/05/10 00:35:21;;;;;;;2.00;1.80;;;;;;;14.02;100.00;98830.56;331220;29;16699;-72
2023/05/10 00:35:33;;;;;;;1.88;1.67;;;;;;;14.02;100.00;98838.41;332361;29;18190;-72
2023/05/10 00:35:45;;;;;;;1.77;1.67;;;;;;;14.02;100.00;98830.56;336033;29;4714;-72
2023/05/10 00:35:57;;;;;;;2.28;2.10;;;;;;;14.05;100.00;98828.59;335509;29;10105;-72
2023/05/10 00:36:10;;;;;;;2.40;2.20;;;;;;;14.07;100.00;98833.75;332124;29;17931;-72
2023/05/10 00:36:22;;;;;;;2.13;1.92;;;;;;;14.02;100.00;98826.16;331436;29;4825;-72
2023/05/10 00:36:34;;;;;;;1.90;1.80;;;;;;;14.05;100.00;98830.38;334491;29;5167;-72
2023/05/10 00:36:46;;;;;;;2.03;1.85;;;;;;;14.05;100.00;98828.59;331191;29;5366;-72
2023/05/10 00:36:58;;;;;;;1.80;1.70;;;;;;;14.08;100.00;98830.19;333420;29;9617;-72
2023/05/10 00:37:10;;;;;;;1.70;1.60;;;;;;;14.07;100.00;98834.59;335766;29;5086;-72
2023/05/10 00:37:22;;;;;;;1.67;1.58;;;;;;;14.07;100.00;98828.53;336194;29;5344;-70
2023/05/10 00:37:36;;;;;;;1.63;1.52;;;;;;;14.07;100.00;98833.75;332887;29;15723;-70
2023/05/10 00:37:49;;;;;;;1.60;1.50;;;;;;;14.09;100.00;98837.13;333079;29;17968;-70
2023/05/10 00:38:01;;;;;;;1.88;1.77;;;;;;;14.07;100.00;98837.19;335321;29;4546;-69
2023/05/10 00:38:14;;;;;;;2.55;2.35;;;;;;;13.97;100.00;98834.28;334185;28;18261;-70
2023/05/10 00:38:26;;;;;;;3.00;2.80;;;;;;;14.01;100.00;98828.88;335867;29;4784;-72
2023/05/10 00:38:38;;;;;;;2.75;2.55;;;;;;;14.04;100.00;98833.91;332691;29;9133;-72
2023/05/10 00:38:50;;;;;;;2.20;2.00;;;;;;;14.02;100.00;98838.41;336091;29;5206;-72
2023/05/10 00:39:03;;;;;;;2.30;2.10;;;;;;;13.97;100.00;98836.91;336343;29;5050;-71
2023/05/10 00:39:15;;;;;;;2.10;2.00;;;;;;;14.00;100.00;98833.25;332253;28;18292;-70
2023/05/10 00:39:28;;;;;;;1.90;1.80;;;;;;;14.02;100.00;98830.56;337397;28;4567;-70
2023/05/10 00:39:40;;;;;;;1.95;1.80;;;;;;;13.96;100.00;98831.75;334698;28;18238;-71
2023/05/10 00:39:52;;;;;;;1.85;1.75;;;;;;;13.92;100.00;98830.25;336970;28;5308;-70
2023/05/10 00:40:05;;;;;;;1.80;1.70;;;;;;;13.94;100.00;98834.50;334490;28;18239;-70
2023/05/10 00:40:17;;;;;;;1.90;1.80;;;;;;;13.93;100.00;98827.56;335678;28;4569;-70
2023/05/10 00:40:30;;;;;;;2.58;1.77;;;;;;;13.95;100.00;98830.09;335986;28;18234;-71
2023/05/10 00:40:42;;;;;;;2.80;1.80;;;;;;;13.90;100.00;98834.75;337197;28;4517;-70
2023/05/10 00:40:54;;;;;;;2.10;1.90;;;;;;;13.88;100.00;98834.00;334545;28;17809;-70
2023/05/10 00:41:06;;;;;;;1.80;1.70;;;;;;;13.91;100.00;98834.66;337034;28;5498;-71
2023/05/10 00:41:18;;;;;;;1.70;1.60;;;;;;;13.94;100.00;98834.50;334593;28;18264;-70
2023/05/10 00:41:33;;;;;;;1.63;1.52;;;;;;;13.95;100.00;98835.31;335917;28;5336;-69
2023/05/10 00:41:45;;;;;;;1.60;1.50;;;;;;;13.94;100.00;98826.66;333204;28;18101;-70
2023/05/10 00:41:57;;;;;;;1.55;1.45;;;;;;;13.97;100.00;98829.06;333855;28;11147;-70
2023/05/10 00:42:09;;;;;;;1.70;1.60;;;;;;;14.01;100.00;98828.88;334697;29;17552;-71
2023/05/10 00:42:22;;;;;;;1.75;1.65;;;;;;;14.02;100.00;98835.78;335988;28;5241;-70
2023/05/10 00:42:34;;;;;;;1.77;1.67;;;;;;;13.98;100.00;98835.97;333198;28;18091;-70
2023/05/10 00:42:46;;;;;;;1.70;1.60;;;;;;;14.00;100.00;98833.25;335791;28;4541;-70
2023/05/10 00:42:59;;;;;;;2.00;1.60;;;;;;;14.01;100.00;98832.34;333171;28;4705;-70
2023/05/10 00:43:11;;;;;;;2.10;1.60;;;;;;;14.05;100.00;98831.22;336204;28;5486;-70
2023/05/10 00:43:23;;;;;;;1.70;1.60;;;;;;;14.02;100.00;98828.78;333499;28;9206;-70
2023/05/10 00:43:35;;;;;;;1.50;1.40;;;;;;;14.01;100.00;98829.72;336202;28;5358;-72
2023/05/10 00:43:48;;;;;;;1.40;1.30;;;;;;;13.96;100.00;98832.63;336187;29;5188;-72
2023/05/10 00:44:01;;;;;;;1.70;1.60;;;;;;;13.97;100.00;98834.28;333381;29;17878;-70
2023/05/10 00:44:13;;;;;;;1.80;1.70;;;;;;;14.02;100.00;98830.56;334286;28;18186;-70
2023/05/10 00:44:25;;;;;;;1.85;1.75;;;;;;;14.02;100.00;98835.78;337324;28;5592;-70
2023/05/10 00:44:37;;;;;;;2.00;1.80;;;;;;;14.05;100.00;98830.38;335983;28;9371;-72
2023/05/10 00:44:49;;;;;;;2.13;1.90;;;;;;;14.05;100.00;98836.44;335431;28;17354;-72
2023/05/10 00:45:02;;;;;;;2.60;2.40;;;;;;;14.08;100.00;98830.19;336987;28;5366;-71
2023/05/10 00:45:13;;;;;;;2.40;2.20;;;;;;;14.08;100.00;98835.41;334763;28;18116;-71
2023/05/10 00:45:28;;;;;;;1.75;1.65;;;;;;;14.10;100.00;98839.59;337070;28;4544;-70
2023/05/10 00:45:41;;;;;;;1.50;1.40;;;;;;;14.12;100.00;98832.50;334622;28;18933;-70
2023/05/10 00:45:53;;;;;;;1.40;1.30;;;;;;;14.10;100.00;98838.78;333434;28;18197;-70
2023/05/10 00:46:06;;;;;;;1.60;1.50;;;;;;;14.11;100.00;98837.84;337227;28;4922;-70
2023/05/10 00:46:18;;;;;;;1.80;1.70;;;;;;;14.14;100.00;98830.66;334525;28;16499;-70
2023/05/10 00:46:30;;;;;;;1.90;1.80;;;;;;;14.07;100.00;98833.75;336666;28;4718;-71
2023/05/10 00:46:42;;;;;;;1.65;1.55;;;;;;;14.04;100.00;98833.91;336474;28;9690;-70
2023/05/10 00:46:54;;;;;;;1.50;1.40;;;;;;;14.05;100.00;98831.22;334628;28;18076;-70
2023/05/10 00:47:07;;;;;;;1.50;1.40;;;;;;;14.07;100.00;98831.13;336779;28;4655;-70
2023/05/10 00:47:19;;;;;;;1.60;1.50;;;;;;;14.09;100.00;98831.88;334224;28;18091;-70
2023/05/10 00:47:34;;;;;;;1.60;1.50;;;;;;;14.13;100.00;98833.38;337315;28;4655;-70
2023/05/10 00:47:46;;;;;;;1.60;1.50;;;;;;;14.14;100.00;98829.81;333599;28;18117;-70
2023/05/10 00:48:00;;;;;;;1.50;1.40;;;;;;;14.14;100.00;98829.81;334404;28;19155;-70
2023/05/10 00:48:13;;;;;;;1.70;1.60;;;;;;;14.14;100.00;98830.66;334361;28;9390;-70
2023/05/10 00:48:25;;;;;;;1.70;1.60;;;;;;;14.15;100.00;98831.50;337590;28;4543;-70
2023/05/10 00:48:37;;;;;;;1.80;1.70;;;;;;;14.14;100.00;98829.81;337480;28;5422;-70
2023/05/10 00:48:49;;;;;;;2.13;1.92;;;;;;;14.15;100.00;98834.13;334059;28;18360;-71
2023/05/10 00:49:01;;;;;;;2.30;2.10;;;;;;;14.14;100.00;98832.44;336282;28;5234;-70
2023/05/10 00:49:13;;;;;;;2.20;2.00;;;;;;;14.12;100.00;98836.91;334662;28;17077;-70
2023/05/10 00:49:25;;;;;;;2.28;2.08;;;;;;;14.07;100.00;98828.53;335831;28;5377;-71
2023/05/10 00:49:37;;;;;;;2.03;1.88;;;;;;;14.05;100.00;98830.38;337471;28;4683;-72
2023/05/10 00:49:50;;;;;;;1.85;1.75;;;;;;;14.07;100.00;98834.59;334448;28;18440;-72
2023/05/10 00:50:02;;;;;;;2.10;1.52;;;;;;;14.04;100.00;98834.75;336093;29;4518;-73
2023/05/10 00:50:15;;;;;;;2.08;1.33;;;;;;;14.05;100.00;98835.63;333348;28;17309;-72
2023/05/10 00:50:28;;;;;;;1.52;1.42;;;;;;;14.06;100.00;98832.88;333600;29;5213;-73
2023/05/10 00:50:40;;;;;;;1.80;1.70;;;;;;;14.10;100.00;98836.16;336073;29;4553;-73
2023/05/10 00:50:52;;;;;;;1.70;1.60;;;;;;;14.10;100.00;98838.78;335400;29;5324;-72
2023/05/10 00:51:04;;;;;;;1.52;1.42;;;;;;;14.07;100.00;98828.53;332719;28;18384;-73
2023/05/10 00:51:16;;;;;;;2.55;2.35;;;;;;;14.08;100.00;98836.25;336130;28;5257;-72
2023/05/10 00:51:28;;;;;;;3.25;3.05;;;;;;;14.04;100.00;98834.75;333391;29;18271;-72
2023/05/10 00:51:42;;;;;;;3.20;3.00;;;;;;;14.04;100.00;98832.13;335823;29;5181;-72
2023/05/10 00:51:54;;;;;;;2.25;2.10;;;;;;;14.07;100.00;98838.97;332784;29;18079;-72
2023/05/10 00:52:06;;;;;;;2.15;2.03;;;;;;;14.08;100.00;98838.03;336138;28;4684;-71
2023/05/10 00:52:19;;;;;;;1.98;1.88;;;;;;;14.11;100.00;98830.84;334621;28;18195;-71
2023/05/10 00:52:31;;;;;;;2.30;1.60;;;;;;;14.11;100.00;98838.69;336933;28;5053;-72
2023/05/10 00:52:43;;;;;;;2.30;1.60;;;;;;;14.13;100.00;98836.81;334535;28;8211;-72
2023/05/10 00:52:55;;;;;;;1.98;1.50;;;;;;;14.11;100.00;98837.84;336800;28;5344;-72
2023/05/10 00:53:10;;;;;;;1.63;1.52;;;;;;;14.10;100.00;98833.56;337228;28;4514;-72
2023/05/10 00:53:22;;;;;;;2.05;1.80;;;;;;;14.08;100.00;98835.41;332749;29;18134;-72
2023/05/10 00:53:34;;;;;;;2.20;2.00;;;;;;;14.08;100.00;98840.63;332913;29;18086;-72
2023/05/10 00:53:47;;;;;;;1.80;1.70;;;;;;;14.08;100.00;98835.41;336274;29;5420;-71
2023/05/10 00:54:00;;;;;;;1.63;1.52;;;;;;;14.11;100.00;98836.06;333235;29;17730;-71
2023/05/10 00:54:13;;;;;;;1.52;1.42;;;;;;;14.12;100.00;98842.13;335793;29;5276;-72
2023/05/10 00:54:25;;;;;;;2.08;1.95;;;;;;;14.13;100.00;98839.44;333060;29;18201;-71
2023/05/10 00:54:38;;;;;;;2.40;2.20;;;;;;;14.16;100.00;98830.56;335223;29;10782;-71
2023/05/10 00:54:51;;;;;;;2.45;2.25;;;;;;;14.16;100.00;98834.00;332681;29;18664;-72
2023/05/10 00:55:05;;;;;;;2.25;1.70;;;;;;;14.16;100.00;98839.25;332782;29;19070;-72
2023/05/10 00:55:17;;;;;;;2.05;1.45;;;;;;;14.14;100.00;98840.28;334397;29;4820;-72
2023/05/10 00:55:30;;;;;;;1.83;1.50;;;;;;;14.10;100.00;98841.38;332580;29;17823;-72
2023/05/10 00:55:44;;;;;;;1.90;1.70;;;;;;;14.13;100.00;98838.59;336087;29;5189;-73
2023/05/10 00:55:56;;;;;;;2.28;2.13;;;;;;;14.16;100.00;98836.63;333328;29;18979;-72
2023/05/10 00:56:08;;;;;;;3.97;2.03;;;;;;;14.12;100.00;98837.75;331215;29;17988;-73
2023/05/10 00:56:22;;;;;;;3.97;1.85;;;;;;;14.11;100.00;98840.47;333323;29;4519;-73
2023/05/10 00:56:35;;;;;;;4.30;1.70;;;;;;;14.15;100.00;98847.19;330396;29;17922;-73
2023/05/10 00:56:49;;;;;;;2.30;1.67;;;;;;;14.17;100.00;98840.09;333271;29;4672;-73
2023/05/10 00:57:01;;;;;;;2.40;2.05;;;;;;;14.19;100.00;98838.22;330315;29;18400;-73
2023/05/10 00:57:13;;;;;;;3.35;3.05;;;;;;;14.22;100.00;98838.03;330310;29;5236;-73
2023/05/10 00:57:25;;;;;;;4.03;3.72;;;;;;;14.24;100.00;98837.94;334656;29;5054;-73
2023/05/10 00:57:37;;;;;;;3.90;3.10;;;;;;;14.27;100.00;98841.22;334745;29;5094;-72
2023/05/10 00:57:49;;;;;;;3.45;2.38;;;;;;;14.31;100.00;98837.50;331806;29;18403;-72
2023/05/10 00:58:01;;;;;;;3.50;2.97;;;;;;;14.34;100.00;98842.50;335041;29;4956;-72
2023/05/10 00:58:14;;;;;;;3.15;2.90;;;;;;;14.35;100.00;98838.97;332184;28;19289;-72
2023/05/10 00:58:28;;;;;;;4.00;3.70;;;;;;;14.36;100.00;98838.03;336301;28;5206;-70